Time;durP1;ratioP1;P1;durP2;ratioP2;P2;SDS_P1;SDS_P2;PMS_P1;PMS_P2;Temp;Humidity;BMP_temperature;BMP_pressure;BME280_temperature;BME280_humidity;BME280_pressure;Samples;Min_cycle;Max_cycle;Signal;HPM_P1;HPM_P2
2022/01/30 00:01:29;;;;;;;13.77;3.80;;;7.00;99.90;;;;;;4970722;28;20382;-81
2022/01/30 00:03:54;;;;;;;14.45;4.93;;;7.00;99.90;;;;;;4955638;28;20053;-80
2022/01/30 00:06:20;;;;;;;17.10;4.40;;;6.90;99.90;;;;;;4969930;28;20066;-81
2022/01/30 00:08:49;;;;;;;17.23;5.03;;;6.90;99.90;;;;;;4956706;28;20049;-80
2022/01/30 00:11:20;;;;;;;13.75;4.07;;;7.00;99.90;;;;;;4969608;28;20098;-80
2022/01/30 00:13:46;;;;;;;10.80;2.90;;;7.20;99.90;;;;;;4967714;28;20043;-80
2022/01/30 00:16:14;;;;;;;6.47;3.00;;;7.00;99.90;;;;;;4968303;28;20438;-80
2022/01/30 00:21:22;;;;;;;14.85;4.18;;;6.80;99.90;;;;;;4971633;28;20043;-79
2022/01/30 00:24:01;;;;;;;12.68;3.70;;;;;;;;;;4975259;28;20117;-80
2022/01/30 00:26:30;;;;;;;12.02;3.33;;;;;;;;;;4957108;28;20065;-79
2022/01/30 00:28:56;;;;;;;9.10;3.25;;;;;;;;;;4970789;28;20051;-80
2022/01/30 00:31:24;;;;;;;7.65;2.75;;;;;;;;;;4951594;28;20137;-79
2022/01/30 00:33:50;;;;;;;9.75;2.90;;;;;;;;;;4969260;28;20105;-81
2022/01/30 00:36:16;;;;;;;15.07;4.20;;;;;;;;;;4956577;28;20047;-80
2022/01/30 00:38:42;;;;;;;12.82;3.40;;;;;;;;;;4958605;28;20093;-81
2022/01/30 00:41:08;;;;;;;18.45;4.13;;;;;;;;;;4973684;28;20039;-80
2022/01/30 00:43:35;;;;;;;14.65;4.38;;;;;;;;;;4965614;28;20058;-81
2022/01/30 00:46:01;;;;;;;14.73;4.30;;;;;;;;;;4974291;28;20395;-81
2022/01/30 00:48:27;;;;;;;16.05;4.00;;;;;;;;;;4970910;28;20046;-80
2022/01/30 00:50:53;;;;;;;15.30;4.63;;;;;;;;;;4974296;28;20043;-80
2022/01/30 00:53:19;;;;;;;18.23;4.38;;;;;;;;;;4963737;28;20045;-81
2022/01/30 00:55:45;;;;;;;16.88;4.43;;;;;;;;;;4970881;28;20039;-81
2022/01/30 00:58:11;;;;;;;15.20;4.47;;;;;;;;;;4976775;28;20082;-80
2022/01/30 01:00:37;;;;;;;15.93;3.58;;;;;;;;;;4973308;28;20121;-81
2022/01/30 01:03:04;;;;;;;12.95;3.47;;;;;;;;;;4969890;28;20046;-80
2022/01/30 01:05:31;;;;;;;13.95;4.68;;;;;;;;;;4972984;28;20039;-80
2022/01/30 01:08:01;;;;;;;9.90;3.40;;;;;;;;;;4969942;28;20417;-81
2022/01/30 01:10:36;;;;;;;15.00;4.15;;;;;;;;;;4976155;28;20185;-80
2022/01/30 01:23:38;;;;;;;13.00;4.10;;;;;;;;;;4970394;28;20125;-81
2022/01/30 01:26:04;;;;;;;14.20;4.65;;;;;;;;;;4956464;28;20466;-81
2022/01/30 01:28:30;;;;;;;16.70;4.15;;;;;;;;;;4962706;28;20077;-82
2022/01/30 01:30:57;;;;;;;16.58;4.38;;;;;;;;;;4955300;28;20075;-81
2022/01/30 01:33:29;;;;;;;14.82;4.00;;;;;;;;;;4954995;28;20070;-80
2022/01/30 01:35:55;;;;;;;10.50;3.53;;;;;;;;;;4966958;28;20042;-81
2022/01/30 01:38:21;;;;;;;13.48;3.70;;;;;;;;;;4965427;28;20050;-81
2022/01/30 01:40:55;;;;;;;15.35;4.30;;;;;;;;;;4956732;28;20038;-81
2022/01/30 01:43:22;;;;;;;8.38;3.55;;;;;;;;;;4970308;28;20483;-81
2022/01/30 01:45:52;;;;;;;14.85;4.15;;;;;;;;;;4970852;28;20398;-81
2022/01/30 01:48:19;;;;;;;6.35;3.03;;;;;;;;;;4954164;28;20370;-81
2022/01/30 01:50:51;;;;;;;11.30;3.50;;;;;;;;;;4974315;28;20051;-81
2022/01/30 01:53:20;;;;;;;15.23;3.20;;;;;;;;;;4970925;28;20546;-81
2022/01/30 01:55:45;;;;;;;13.18;3.83;;;;;;;;;;4968050;28;20050;-81
2022/01/30 01:58:11;;;;;;;13.95;3.58;;;;;;;;;;4968186;28;20054;-81
2022/01/30 02:00:38;;;;;;;17.23;3.97;;;;;;;;;;4952968;28;20390;-81
2022/01/30 02:03:05;;;;;;;12.82;3.88;;;;;;;;;;4970760;28;20043;-80
2022/01/30 02:05:33;;;;;;;19.70;5.07;;;;;;;;;;4952914;28;20097;-81
2022/01/30 02:08:27;;;;;;;20.00;4.57;;;;;;;;;;4953613;28;20049;-81
2022/01/30 02:24:28;;;;;;;16.13;4.07;;;;;;;;;;4951542;28;20043;-81
2022/01/30 02:26:54;;;;;;;13.00;3.92;;;;;;;;;;4970674;28;20043;-82
2022/01/30 02:29:20;;;;;;;15.35;4.40;;;;;;;;;;4953429;28;20086;-81
2022/01/30 02:31:46;;;;;;;15.10;4.32;;;;;;;;;;4976920;28;20042;-82
2022/01/30 02:34:13;;;;;;;13.65;3.88;;;;;;;;;;4967792;28;20058;-82
2022/01/30 02:36:45;;;;;;;15.63;3.72;;;;;;;;;;4968057;28;20087;-81
2022/01/30 02:39:11;;;;;;;15.65;4.47;;;;;;;;;;4962574;28;20465;-82
2022/01/30 02:41:38;;;;;;;12.82;4.35;;;;;;;;;;4974356;28;20125;-81
2022/01/30 02:44:11;;;;;;;15.48;4.47;;;;;;;;;;4970830;28;20506;-81
2022/01/30 02:46:42;;;;;;;12.75;4.20;;;;;;;;;;4973157;28;20049;-82
2022/01/30 02:49:26;;;;;;;15.07;4.78;;;;;;;;;;4971303;28;20459;-82
2022/01/30 02:51:57;;;;;;;16.42;5.03;;;;;;;;;;4951032;28;20126;-81
2022/01/30 02:54:24;;;;;;;22.63;6.55;;;;;;;;;;4971833;28;20379;-81
2022/01/30 02:56:50;;;;;;;23.45;5.43;;;;;;;;;;4955545;28;20054;-81
2022/01/30 02:59:17;;;;;;;19.75;5.45;;;;;;;;;;4972107;28;20054;-81
2022/01/30 03:01:43;;;;;;;21.45;6.07;;;;;;;;;;4954895;28;20090;-81
2022/01/30 03:04:09;;;;;;;20.77;6.55;;;;;;;;;;4957169;28;20046;-81
2022/01/30 03:06:35;;;;;;;24.30;5.38;;;;;;;;;;4978811;28;20126;-81
2022/01/30 03:09:02;;;;;;;19.02;6.18;;;;;;;;;;4973690;28;20398;-82
2022/01/30 03:11:28;;;;;;;22.65;6.13;;;;;;;;;;4959240;28;20141;-82
2022/01/30 03:13:54;;;;;;;18.25;5.95;;;;;;;;;;4962630;28;20051;-81
2022/01/30 03:16:22;;;;;;;22.98;5.63;;;;;;;;;;4974317;28;20050;-82
2022/01/30 03:18:49;;;;;;;31.50;6.68;;;;;;;;;;4954379;28;20042;-81
2022/01/30 03:21:15;;;;;;;20.20;6.15;;;;;;;;;;4971415;28;20045;-81
2022/01/30 03:23:44;;;;;;;20.83;5.40;;;;;;;;;;4954124;28;20396;-81
2022/01/30 03:26:11;;;;;;;27.70;7.65;;;;;;;;;;4963593;28;20057;-81
2022/01/30 03:28:40;;;;;;;23.05;7.70;;;;;;;;;;4958204;28;20059;-81
2022/01/30 03:31:08;;;;;;;30.65;7.07;;;;;;;;;;4952614;28;20114;-80
2022/01/30 03:33:34;;;;;;;31.92;7.90;;;;;;;;;;4957161;28;20113;-81
2022/01/30 03:36:00;;;;;;;26.08;6.88;;;;;;;;;;4975610;28;20098;-81
2022/01/30 03:38:30;;;;;;;25.00;7.10;;;;;;;;;;4958906;28;20097;-81
2022/01/30 03:40:58;;;;;;;25.95;7.25;;;;;;;;;;4976039;28;20051;-81
2022/01/30 03:43:24;;;;;;;21.52;6.38;;;;;;;;;;4950378;28;20126;-81
2022/01/30 03:45:51;;;;;;;21.58;5.75;;;;;;;;;;4973747;28;20058;-81
2022/01/30 03:48:17;;;;;;;20.50;5.90;;;;;;;;;;4978307;28;20093;-81
2022/01/30 03:50:43;;;;;;;18.83;5.90;;;;;;;;;;4961113;28;20043;-81
2022/01/30 03:53:09;;;;;;;18.95;6.65;;;;;;;;;;4965902;28;20058;-80
2022/01/30 03:55:35;;;;;;;21.60;5.75;;;;;;;;;;4962031;28;20043;-81
2022/01/30 03:58:02;;;;;;;17.17;5.95;;;;;;;;;;4961655;28;20086;-81
2022/01/30 04:00:28;;;;;;;15.65;5.18;;;;;;;;;;4958963;28;20045;-83
2022/01/30 04:02:55;;;;;;;20.42;5.80;;;;;;;;;;4956005;28;20051;-82
2022/01/30 04:05:21;;;;;;;20.50;6.03;;;;;;;;;;4978449;28;20061;-82
2022/01/30 04:07:47;;;;;;;21.17;6.28;;;;;;;;;;4970659;28;20482;-83
2022/01/30 04:10:13;;;;;;;16.63;5.53;;;;;;;;;;4977015;28;20046;-82
2022/01/30 04:12:40;;;;;;;17.73;4.72;;;;;;;;;;4960567;28;20534;-82
2022/01/30 04:15:06;;;;;;;23.17;5.95;;;;;;;;;;4950262;28;20043;-81
2022/01/30 04:17:32;;;;;;;16.75;5.30;;;;;;;;;;4959549;28;20053;-82
2022/01/30 04:19:58;;;;;;;17.67;5.88;;;;;;;;;;4972534;28;20047;-82
2022/01/30 04:22:25;;;;;;;21.45;5.90;;;;;;;;;;4949018;28;20606;-81
2022/01/30 04:24:52;;;;;;;20.83;5.85;;;;;;;;;;4973014;28;20043;-82
2022/01/30 04:27:20;;;;;;;26.20;7.13;;;;;;;;;;4957875;28;20129;-81
2022/01/30 04:29:46;;;;;;;27.77;6.32;;;;;;;;;;4951623;28;20070;-81
2022/01/30 04:32:13;;;;;;;27.35;5.70;;;;;;;;;;4954419;28;20388;-81
2022/01/30 04:34:41;;;;;;;18.83;6.35;;;;;;;;;;4969555;28;20534;-81
2022/01/30 04:37:16;;;;;;;21.48;6.75;;;;;;;;;;4966331;28;20153;-81
2022/01/30 04:54:40;;;;;;;20.38;5.32;;;;;;;;;;4977763;28;20050;-81
2022/01/30 04:56:46;;;;;;;22.77;5.40;;;;;;;;;;4963992;28;20054;-82
2022/01/30 04:59:39;;;;;;;18.10;5.32;;;;;;;;;;4956132;28;20100;-82
2022/01/30 05:02:12;;;;;;;16.65;5.68;;;;;;;;;;4979774;28;20560;-82
2022/01/30 05:09:36;;;;;;;24.42;6.60;;;;;;;;;;4959951;28;20085;-82
2022/01/30 05:12:02;;;;;;;20.92;5.40;;;;;;;;;;4965503;28;20047;-83
2022/01/30 05:14:34;;;;;;;26.55;6.63;;;;;;;;;;4971830;28;20070;-82
2022/01/30 05:17:02;;;;;;;22.15;6.57;;;;;;;;;;4976403;28;20386;-82
2022/01/30 05:19:28;;;;;;;21.85;6.57;;;;;;;;;;4966697;28;20487;-82
2022/01/30 05:21:54;;;;;;;22.92;6.13;;;;;;;;;;4965655;28;20054;-82
2022/01/30 05:24:20;;;;;;;24.88;6.35;;;;;;;;;;4969646;28;20094;-82
2022/01/30 05:26:46;;;;;;;21.38;5.75;;;;;;;;;;4955980;28;20057;-82
2022/01/30 05:29:14;;;;;;;23.30;7.07;;;;;;;;;;4951408;28;20059;-82
2022/01/30 05:31:40;;;;;;;22.25;6.40;;;;;;;;;;4948586;28;20066;-82
2022/01/30 05:34:08;;;;;;;26.73;6.95;;;;;;;;;;4949848;28;20051;-82
2022/01/30 05:36:34;;;;;;;20.58;6.20;;;;;;;;;;4968959;28;20042;-82
2022/01/30 05:39:04;;;;;;;16.20;6.35;;;;;;;;;;4950252;28;20541;-82
2022/01/30 05:41:31;;;;;;;22.00;6.07;;;;;;;;;;4954324;28;20086;-82
2022/01/30 05:43:59;;;;;;;21.05;7.72;;;;;;;;;;4954312;28;20034;-82
2022/01/30 05:46:37;;;;;;;18.50;5.45;;;;;;;;;;4952029;28;20058;-82
2022/01/30 05:49:22;;;;;;;18.33;5.93;;;;;;;;;;4947602;28;20066;-82
2022/01/30 05:51:49;;;;;;;18.80;5.35;;;;;;;;;;4955303;28;20173;-82
2022/01/30 05:54:15;;;;;;;21.58;6.20;;;;;;;;;;4953406;28;20058;-82
2022/01/30 05:56:41;;;;;;;26.70;6.68;;;;;;;;;;4952827;28;20043;-82
2022/01/30 05:59:07;;;;;;;20.17;6.13;;;;;;;;;;4953362;28;20428;-81
2022/01/30 06:01:33;;;;;;;25.38;7.47;;;;;;;;;;4952367;28;20130;-82
2022/01/30 06:03:59;;;;;;;24.88;6.28;;;;;;;;;;4949539;28;20126;-82
2022/01/30 06:06:25;;;;;;;22.17;6.47;;;;;;;;;;4953422;28;20209;-81
2022/01/30 06:11:36;;;;;;;23.50;6.25;;;;;;;;;;4947867;28;20039;-83
2022/01/30 06:14:02;;;;;;;22.48;6.85;;;;;;;;;;4946499;28;20058;-82
2022/01/30 06:16:28;;;;;;;27.27;6.90;;;;;;;;;;4951346;28;20042;-82
2022/01/30 06:18:54;;;;;;;23.83;5.97;;;;;;;;;;4968645;28;20508;-83
2022/01/30 06:21:20;;;;;;;21.42;5.95;;;;;;;;;;4952038;28;20043;-82
2022/01/30 06:23:45;;;;;;;20.20;6.10;;;;;;;;;;4950418;28;20487;-81
2022/01/30 06:26:11;;;;;;;24.00;5.95;;;;;;;;;;4955306;28;20043;-81
2022/01/30 06:28:38;;;;;;;21.33;5.85;;;;;;;;;;4953115;28;20150;-82
2022/01/30 06:31:04;;;;;;;23.92;5.65;;;;;;;;;;4958058;28;20406;-82
2022/01/30 06:33:30;;;;;;;19.33;6.60;;;;;;;;;;4970184;28;20047;-82
2022/01/30 06:35:56;;;;;;;21.77;5.63;;;;;;;;;;4950767;28;20046;-82
2022/01/30 06:38:22;;;;;;;21.35;6.18;;;;;;;;;;4951150;28;20050;-82
2022/01/30 06:40:48;;;;;;;14.98;5.13;;;;;;;;;;4967406;28;20031;-82
2022/01/30 06:43:14;;;;;;;22.15;6.45;;;;;;;;;;4970259;28;20509;-81
2022/01/30 06:45:42;;;;;;;23.40;7.65;;;;;;;;;;4958634;28;20043;-82
2022/01/30 06:48:11;;;;;;;21.70;6.25;;;;;;;;;;4955796;28;20087;-81
2022/01/30 06:50:37;;;;;;;23.52;6.57;;;;;;;;;;4972443;28;20487;-82
2022/01/30 06:53:03;;;;;;;20.15;6.63;;;;;;;;;;4946916;28;20127;-82
2022/01/30 06:55:29;;;;;;;20.42;6.25;;;;;;;;;;4971736;28;20519;-81
2022/01/30 06:57:55;;;;;;;19.73;6.20;;;;;;;;;;4954389;28;20061;-82
2022/01/30 07:00:21;;;;;;;19.80;6.50;;;;;;;;;;4952927;28;20133;-81
2022/01/30 07:02:47;;;;;;;20.88;6.40;;;;;;;;;;4973032;28;20051;-81
2022/01/30 07:05:13;;;;;;;16.20;5.97;;;;;;;;;;4958805;28;20059;-82
2022/01/30 07:07:39;;;;;;;20.92;6.07;;;;;;;;;;4972196;28;20070;-82
2022/01/30 07:10:11;;;;;;;21.02;6.85;;;;;;;;;;4955510;28;20506;-81
2022/01/30 07:12:40;;;;;;;17.65;5.78;;;;;;;;;;4970290;28;20046;-79
2022/01/30 07:15:06;;;;;;;20.98;6.60;;;;;;;;;;4965031;28;20039;-81
2022/01/30 07:17:32;;;;;;;21.00;6.47;;;;;;;;;;4948961;28;20061;-82
2022/01/30 07:20:02;;;;;;;17.48;5.53;;;;;;;;;;4970853;28;20043;-82
2022/01/30 07:22:28;;;;;;;23.95;6.43;;;;;;;;;;4968823;28;20070;-83
2022/01/30 07:24:54;;;;;;;22.48;5.85;;;;;;;;;;4957261;28;20053;-81
2022/01/30 07:27:20;;;;;;;22.80;6.15;;;;;;;;;;4970877;28;20145;-82
2022/01/30 07:29:46;;;;;;;20.52;6.38;;;;;;;;;;4953534;28;20135;-82
2022/01/30 07:32:12;;;;;;;21.17;6.30;;;;;;;;;;4969838;28;20566;-81
2022/01/30 07:34:38;;;;;;;17.42;5.60;;;;;;;;;;4955591;28;20062;-81
2022/01/30 07:37:05;;;;;;;25.35;6.53;;;;;;;;;;4954332;28;20051;-82
2022/01/30 07:39:32;;;;;;;21.65;6.18;;;;;;;;;;4953852;28;20049;-82
2022/01/30 07:41:58;;;;;;;23.13;7.10;;;;;;;;;;4975920;28;20096;-81
2022/01/30 07:44:28;;;;;;;22.55;5.65;;;;;;;;;;4958503;28;20506;-82
2022/01/30 07:46:53;;;;;;;23.25;6.18;;;;;;;;;;4968889;28;20043;-81
2022/01/30 07:49:19;;;;;;;20.90;6.75;;;;;;;;;;4969488;28;20269;-81
2022/01/30 07:51:45;;;;;;;16.95;5.88;;;;;;;;;;4978150;28;20053;-81
2022/01/30 07:54:12;;;;;;;22.88;6.57;;;;;;;;;;4970295;28;20050;-82
2022/01/30 07:56:38;;;;;;;22.02;6.32;;;;;;;;;;4976372;28;20034;-83
2022/01/30 07:59:04;;;;;;;18.77;5.95;;;;;;;;;;4975718;28;20042;-81
2022/01/30 08:01:30;;;;;;;20.50;6.13;;;;;;;;;;4958362;28;20419;-81
2022/01/30 08:03:56;;;;;;;27.35;6.15;;;;;;;;;;4950644;28;20146;-81
2022/01/30 08:06:22;;;;;;;24.20;6.63;;;;;;;;;;4973614;28;20130;-81
2022/01/30 08:08:48;;;;;;;27.90;7.45;;;;;;;;;;4957951;28;20490;-81
2022/01/30 08:11:14;;;;;;;22.70;6.15;;;;;;;;;;4956615;28;20046;-81
2022/01/30 08:13:40;;;;;;;22.15;6.53;;;;;;;;;;4961795;28;20733;-81
2022/01/30 08:16:06;;;;;;;23.67;7.15;;;;;;;;;;4973743;28;20042;-81
2022/01/30 08:18:34;;;;;;;21.23;6.47;;;;;;;;;;4973015;28;20046;-81
2022/01/30 08:21:00;;;;;;;21.05;6.22;;;;;;;;;;4972911;28;20487;-81
2022/01/30 08:23:28;;;;;;;24.48;6.65;;;;;;;;;;4968006;28;20077;-82
2022/01/30 08:25:54;;;;;;;23.88;6.95;;;;;;;;;;4973701;28;20039;-82
2022/01/30 08:28:20;;;;;;;23.65;6.57;;;;;;;;;;4958150;28;20070;-81
2022/01/30 08:30:46;;;;;;;23.35;7.20;;;;;;;;;;4954321;28;20097;-81
2022/01/30 08:33:15;;;;;;;23.65;6.30;;;;;;;;;;4975228;28;20047;-82
2022/01/30 08:35:41;;;;;;;20.42;6.63;;;;;;;;;;4954347;28;20571;-81
2022/01/30 08:38:07;;;;;;;24.67;6.90;;;;;;;;;;4957527;28;20114;-81
2022/01/30 08:40:34;;;;;;;22.42;6.35;;;;;;;;;;4953002;28;20125;-81
2022/01/30 08:43:00;;;;;;;22.02;6.28;;;;;;;;;;4959203;28;20129;-81
2022/01/30 08:45:29;;;;;;;21.90;5.95;;;;;;;;;;4958362;28;20072;-82
2022/01/30 08:47:58;;;;;;;18.98;5.65;;;;;;;;;;4953222;28;20043;-83
2022/01/30 08:50:24;;;;;;;21.48;6.45;;;;;;;;;;4961301;28;20053;-82
2022/01/30 08:52:51;;;;;;;20.38;5.82;;;;;;;;;;4947948;28;20066;-82
2022/01/30 08:55:17;;;;;;;20.85;6.68;;;;;;;;;;4957371;28;20049;-82
2022/01/30 08:57:43;;;;;;;23.17;6.22;;;;;;;;;;4948021;28;20503;-81
2022/01/30 09:00:11;;;;;;;23.20;6.85;;;;;;;;;;4958737;28;20094;-81
2022/01/30 09:02:37;;;;;;;28.05;6.53;;;;;;;;;;4953161;28;20058;-81
2022/01/30 09:05:06;;;;;;;19.30;6.47;;;;;;;;;;4949179;28;20074;-81
2022/01/30 09:07:32;;;;;;;26.92;7.20;;;;;;;;;;4952571;28;20559;-81
2022/01/30 09:09:58;;;;;;;14.98;5.78;;;;;;;;;;4972109;28;20051;-82
2022/01/30 09:12:24;;;;;;;18.27;5.50;;;;;;;;;;4967291;28;20070;-81
2022/01/30 09:14:50;;;;;;;25.48;6.78;;;;;;;;;;4965697;28;20074;-81
2022/01/30 09:17:17;;;;;;;15.93;5.85;;;;;;;;;;4948685;28;20051;-81
2022/01/30 09:19:44;;;;;;;20.90;6.13;;;;;;;;;;4967895;28;20125;-81
2022/01/30 09:22:11;;;;;;;17.38;5.75;;;;;;;;;;4964566;28;20059;-81
2022/01/30 09:24:38;;;;;;;22.63;6.03;;;;;;;;;;4968261;28;20073;-81
2022/01/30 09:27:04;;;;;;;20.80;6.38;;;;;;;;;;4950710;28;20046;-81
2022/01/30 09:29:30;;;;;;;29.02;6.00;;;;;;;;;;4965235;28;20058;-81
2022/01/30 09:31:57;;;;;;;25.75;7.25;;;;;;;;;;4975678;28;20050;-85
2022/01/30 09:34:23;;;;;;;22.00;7.72;;;;;;;;;;4952185;28;20062;-81
2022/01/30 09:36:49;;;;;;;22.63;6.20;;;;;;;;;;4949263;28;20062;-81
2022/01/30 09:39:15;;;;;;;20.60;6.43;;;;;;;;;;4968269;28;20055;-80
2022/01/30 09:41:45;;;;;;;21.20;6.95;;;;;;;;;;4948490;28;20053;-81
2022/01/30 09:44:11;;;;;;;25.95;6.57;;;;;;;;;;4948601;28;20074;-81
2022/01/30 09:46:39;;;;;;;21.70;6.75;;;;;;;;;;4965658;28;20464;-81
2022/01/30 09:49:08;;;;;;;21.58;6.57;;;;;;;;;;4977952;28;20505;-80
2022/01/30 09:51:35;;;;;;;25.85;7.07;;;;;;;;;;4966152;28;20165;-81
2022/01/30 09:54:01;;;;;;;21.65;6.28;;;;;;;;;;4971920;28;20062;-81
2022/01/30 09:56:27;;;;;;;20.90;6.50;;;;;;;;;;4969185;28;20046;-81
2022/01/30 09:58:53;;;;;;;22.83;6.35;;;;;;;;;;4958621;28;20061;-81
2022/01/30 10:01:19;;;;;;;28.15;7.22;;;;;;;;;;4957601;28;20039;-81
2022/01/30 10:03:48;;;;;;;24.35;6.40;;;;;;;;;;4971195;28;20038;-81
2022/01/30 10:06:19;;;;;;;20.75;7.00;;;;;;;;;;4948569;28;20066;-81
2022/01/30 10:08:48;;;;;;;25.65;7.10;;;;;;;;;;4967001;28;20043;-80
2022/01/30 10:14:07;;;;;;;24.00;6.70;;;;;;;;;;4970934;28;20038;-79
2022/01/30 10:16:36;;;;;;;21.63;6.05;;;;;;;;;;4954815;28;20185;-80
2022/01/30 10:19:09;;;;;;;25.13;6.38;;;;;;;;;;4954321;28;20053;-80
2022/01/30 10:21:35;;;;;;;;;;;;;;;;;;4975041;28;20054;-80
2022/01/30 10:24:16;;;;;;;25.38;7.22;;;;;;;;;;4952446;28;20012;-79
2022/01/30 10:26:45;;;;;;;24.30;6.85;;;;;;;;;;4954482;28;20046;-80
2022/01/30 10:29:22;;;;;;;31.67;8.38;;;;;;;;;;4973221;28;20173;-79
2022/01/30 10:32:04;;;;;;;29.58;8.23;;;;;;;;;;4971923;28;20514;-80
2022/01/30 10:34:31;;;;;;;23.65;7.50;;;;;;;;;;4968454;28;20046;-81
2022/01/30 10:37:12;;;;;;;26.02;7.30;;;;;;;;;;4971225;28;20364;-81
2022/01/30 10:39:57;;;;;;;26.55;6.60;;;;;;;;;;4969518;28;20583;-80
2022/01/30 10:42:30;;;;;;;31.77;7.05;;;;;;;;;;4977591;28;20055;-80
2022/01/30 10:44:56;;;;;;;22.27;6.35;;;;;;;;;;4971267;28;20054;-80
2022/01/30 10:47:22;;;;;;;20.15;6.63;;;;;;;;;;4959050;28;20054;-80
2022/01/30 10:49:50;;;;;;;22.52;6.28;;;;;;;;;;4971406;28;20157;-80
2022/01/30 10:52:16;;;;;;;20.33;5.75;;;;;;;;;;4949800;28;20058;-80
2022/01/30 10:54:42;;;;;;;20.45;6.18;;;;;;;;;;4951518;28;20189;-80
2022/01/30 10:57:10;;;;;;;19.83;6.15;;;;;;;;;;4953348;28;20043;-80
2022/01/30 10:59:42;;;;;;;19.63;6.18;;;;;;;;;;4954460;28;20054;-80
2022/01/30 11:02:15;;;;;;;23.05;6.30;;;;;;;;;;4971101;28;20038;-79
2022/01/30 11:04:41;;;;;;;23.92;7.32;;;;;;;;;;4956102;28;20042;-79
2022/01/30 11:07:09;;;;;;;20.35;6.50;;;;;;;;;;4954914;28;20438;-80
2022/01/30 11:09:42;;;;;;;23.25;6.90;;;;;;;;;;4969271;28;20403;-79
2022/01/30 11:12:15;;;;;;;20.10;5.75;;;;;;;;;;4980193;28;20046;-79
2022/01/30 11:17:18;;;;;;;24.17;6.03;;;;;;;;;;4956971;28;20120;-79
2022/01/30 11:19:45;;;;;;;22.33;6.60;;;;;;;;;;4949197;28;20050;-80
2022/01/30 11:22:15;;;;;;;28.80;7.00;;;;;;;;;;4952355;28;20133;-79
2022/01/30 11:24:48;;;;;;;23.55;6.50;;;;;;;;;;4969595;28;20502;-80
2022/01/30 11:27:16;;;;;;;24.23;6.82;;;;;;;;;;4953206;28;20117;-79
2022/01/30 11:29:42;;;;;;;19.83;7.03;;;;;;;;;;4967224;28;20046;-79
2022/01/30 11:32:09;;;;;;;22.88;5.85;;;;;;;;;;4972491;28;20510;-79
2022/01/30 11:34:39;;;;;;;22.40;6.50;;;;;;;;;;4970704;28;20074;-80
2022/01/30 11:37:06;;;;;;;18.67;5.22;;;;;;;;;;4954630;28;20057;-80
2022/01/30 11:39:33;;;;;;;16.33;5.82;;;;;;;;;;4972759;28;20487;-79
2022/01/30 11:42:08;;;;;;;19.05;6.15;;;;;;;;;;4970922;28;20054;-79
2022/01/30 11:44:35;;;;;;;22.85;6.07;;;;;;;;;;4954666;28;20088;-80
2022/01/30 11:47:04;;;;;;;22.77;6.40;;;;;;;;;;4967935;28;20130;-79
2022/01/30 11:49:55;;;;;;;25.35;6.82;;;;;;;;;;4971969;28;20122;-79
2022/01/30 11:52:21;;;;;;;16.75;6.07;;;;;;;;;;4948381;28;20059;-80
2022/01/30 11:54:50;;;;;;;23.25;6.13;;;;;;;;;;4970824;28;20592;-80
2022/01/30 11:57:18;;;;;;;20.98;6.32;;;;;;;;;;4968213;28;20043;-79
2022/01/30 11:59:45;;;;;;;20.48;5.97;;;;;;;;;;4969613;28;20101;-80
2022/01/30 12:02:23;;;;;;;21.95;6.50;;;;;;;;;;4970089;28;20081;-80
2022/01/30 12:05:00;;;;;;;22.30;6.45;;;;;;;;;;4966829;28;20054;-80
2022/01/30 12:07:32;;;;;;;21.85;6.75;;;;;;;;;;4965621;28;20049;-80
2022/01/30 12:10:17;;;;;;;19.65;6.07;;;;;;;;;;4976193;28;20566;-80
2022/01/30 12:12:47;;;;;;;22.83;7.00;;;;;;;;;;4968664;28;20066;-79
2022/01/30 12:15:33;;;;;;;21.05;6.65;;;;;;;;;;4971416;28;20425;-79
2022/01/30 12:17:59;;;;;;;17.17;5.97;;;;;;;;;;4963136;28;20047;-79
2022/01/30 12:20:26;;;;;;;17.63;5.63;;;;;;;;;;4966476;28;20073;-80
2022/01/30 12:22:53;;;;;;;15.93;6.18;;;;;;;;;;4974673;28;20043;-80
2022/01/30 12:25:24;;;;;;;20.88;6.40;;;;;;;;;;4972392;28;20081;-80
2022/01/30 12:27:51;;;;;;;21.95;6.45;;;;;;;;;;4971421;28;20489;-80
2022/01/30 12:30:30;;;;;;;20.60;6.43;;;;;;;;;;4972777;28;20447;-80
2022/01/30 12:32:56;;;;;;;22.08;6.82;;;;;;;;;;4970033;28;20066;-80
2022/01/30 12:35:22;;;;;;;24.80;6.03;;;;;;;;;;4966759;28;20039;-80
2022/01/30 12:37:48;;;;;;;18.67;5.78;;;;;;;;;;4949015;28;20064;-78
2022/01/30 12:40:16;;;;;;;18.83;5.90;;;;;;;;;;4951181;28;20046;-78
2022/01/30 12:42:42;;;;;;;18.10;6.03;;;;;;;;;;4948610;28;20059;-79
2022/01/30 12:45:09;;;;;;;18.52;5.40;;;;;;;;;;4965158;28;20501;-79
2022/01/30 12:47:57;;;;;;;18.92;5.95;;;;;;;;;;4932586;28;20070;-79
2022/01/30 12:50:28;;;;;;;19.63;5.45;;;;;;;;;;4965211;28;20495;-77
2022/01/30 12:52:54;;;;;;;19.27;4.97;;;;;;;;;;4928703;28;20062;-76
2022/01/30 12:55:21;;;;;;;13.38;4.53;;;;;;;;;;4928061;29;20137;-77
2022/01/30 12:57:48;;;;;;;19.08;5.15;;;;;;;;;;4930534;29;20395;-76
2022/01/30 13:00:17;;;;;;;20.13;5.50;;;;;;;;;;4925850;28;20169;-74
2022/01/30 13:03:00;;;;;;;17.98;5.65;;;;;;;;;;4952649;28;20055;-77
2022/01/30 13:05:27;;;;;;;19.70;5.63;;;;;;;;;;4935443;28;20104;-76
2022/01/30 13:07:56;;;;;;;19.20;5.70;;;;;;;;;;4953829;28;20097;-79
2022/01/30 13:10:23;;;;;;;16.55;4.75;;;;;;;;;;4936734;28;20130;-78
2022/01/30 13:12:50;;;;;;;14.25;5.50;;;;;;;;;;4931663;29;20043;-78
2022/01/30 13:15:17;;;;;;;17.45;5.15;;;;;;;;;;4948132;28;20074;-76
2022/01/30 13:17:43;;;;;;;17.45;4.70;;;;;;;;;;4947216;28;20043;-78
2022/01/30 13:20:11;;;;;;;18.08;5.07;;;;;;;;;;4930502;29;20054;-77
2022/01/30 13:22:40;;;;;;;16.88;4.72;;;;;;;;;;4928379;28;20439;-78
2022/01/30 13:25:08;;;;;;;15.77;4.65;;;;;;;;;;4942062;28;20047;-77
2022/01/30 13:27:39;;;;;;;16.05;5.38;;;;;;;;;;4945787;28;20090;-79
2022/01/30 13:30:05;;;;;;;16.77;5.30;;;;;;;;;;4924190;29;20056;-79
2022/01/30 13:32:31;;;;;;;15.82;5.28;;;;;;;;;;4931034;29;20044;-78
2022/01/30 13:34:58;;;;;;;16.15;5.10;;;;;;;;;;4942789;29;20047;-78
2022/01/30 13:37:24;;;;;;;17.17;5.15;;;;;;;;;;4930920;29;20461;-78
2022/01/30 13:46:53;;;;;;;13.73;5.03;;;;;;;;;;4926381;29;20510;-78
2022/01/30 13:47:52;;;;;;;17.98;4.68;;;;;;;;;;4930629;29;20047;-79
2022/01/30 13:50:19;;;;;;;14.20;5.05;;;;;;;;;;4927538;29;20047;-77
2022/01/30 13:52:45;;;;;;;18.25;5.28;;;;;;;;;;4932517;29;20039;-78
2022/01/30 13:55:12;;;;;;;20.35;5.95;;;;;;;;;;4922564;29;20492;-76
2022/01/30 13:57:39;;;;;;;15.57;5.80;;;;;;;;;;4924173;29;20048;-76
2022/01/30 14:00:06;;;;;;;14.10;4.90;;;;;;;;;;4927662;29;20051;-77
2022/01/30 14:02:33;;;;;;;16.67;5.03;;;;;;;;;;4925174;29;20138;-77
2022/01/30 14:05:19;;;;;;;17.08;5.75;;;;;;;;;;4930038;29;20126;-77
2022/01/30 14:07:45;;;;;;;19.95;5.82;;;;;;;;;;4923536;29;20112;-78
2022/01/30 14:10:11;;;;;;;16.67;5.53;;;;;;;;;;4929330;29;20055;-77
2022/01/30 14:12:39;;;;;;;18.38;5.40;;;;;;;;;;4928993;29;20050;-77
2022/01/30 14:15:08;;;;;;;20.30;5.72;;;;;;;;;;4930119;29;20131;-79
2022/01/30 14:17:39;;;;;;;16.95;4.78;;;;;;;;;;4923705;29;20043;-77
2022/01/30 14:20:08;;;;;;;20.67;5.57;;;;;;;;;;4928711;29;20060;-77
2022/01/30 14:22:35;;;;;;;20.85;5.55;;;;;;;;;;4925163;29;20579;-76
2022/01/30 14:25:06;;;;;;;16.75;5.13;;;;;;;;;;4930687;29;20051;-76
2022/01/30 14:27:36;;;;;;;21.88;5.55;;;;;;;;;;4935088;29;20055;-77
2022/01/30 14:30:05;;;;;;;15.38;5.53;;;;;;;;;;4945871;28;20530;-78
2022/01/30 14:32:38;;;;;;;14.90;5.32;;;;;;;;;;4948953;28;20055;-74
2022/01/30 14:35:06;;;;;;;18.80;5.05;;;;;;;;;;4946157;28;20067;-75
2022/01/30 14:37:44;;;;;;;17.88;5.15;;;;;;;;;;4946885;29;20091;-75
2022/01/30 14:40:12;;;;;;;16.15;5.68;;;;;;;;;;4950138;28;20054;-75
2022/01/30 14:42:38;;;;;;;13.73;5.15;;;;;;;;;;4946893;28;20047;-75
2022/01/30 14:45:04;;;;;;;14.15;4.88;;;;;;;;;;4946858;28;20458;-74
2022/01/30 14:47:30;;;;;;;15.70;5.15;;;;;;;;;;4932954;29;20507;-74
2022/01/30 14:49:58;;;;;;;25.42;9.25;;;;;;;;;;4930488;28;20043;-74
2022/01/30 14:52:24;;;;;;;21.35;7.07;;;;;;;;;;4953738;28;20051;-75
2022/01/30 14:54:50;;;;;;;22.75;5.97;;;;;;;;;;4938184;29;20090;-75
2022/01/30 14:57:16;;;;;;;15.23;5.32;;;;;;;;;;4937224;29;20523;-75
2022/01/30 14:59:42;;;;;;;20.50;6.22;;;;;;;;;;4949995;28;20039;-77
2022/01/30 15:02:08;;;;;;;17.98;5.65;;;;;;;;;;4933547;28;20051;-75
2022/01/30 15:04:34;;;;;;;23.15;5.93;;;;;;;;;;4933874;29;20039;-77
2022/01/30 15:07:01;;;;;;;21.48;5.70;;;;;;;;;;4932527;28;21868;-77
2022/01/30 15:09:28;;;;;;;19.73;4.70;;;;;;;;;;4928785;29;20421;-77
2022/01/30 15:11:54;;;;;;;17.50;5.07;;;;;;;;;;4929784;28;20097;-76
2022/01/30 15:14:23;;;;;;;18.13;5.60;;;;;;;;;;4949561;28;20043;-77
2022/01/30 15:16:51;;;;;;;19.42;5.80;;;;;;;;;;4953741;28;20407;-76
2022/01/30 15:19:18;;;;;;;17.75;5.32;;;;;;;;;;4949757;28;20089;-78
2022/01/30 15:21:45;;;;;;;18.00;5.38;;;;;;;;;;4933384;29;20046;-79
2022/01/30 15:24:18;;;;;;;20.20;5.72;;;;;;;;;;4932697;29;20047;-79
2022/01/30 15:26:44;;;;;;;17.20;5.28;;;;;;;;;;4950100;28;20101;-80
2022/01/30 15:29:10;;;;;;;21.30;5.28;;;;;;;;;;4949896;28;20055;-78
2022/01/30 15:31:38;;;;;;;17.27;4.82;;;;;;;;;;4930126;29;20101;-82
2022/01/30 15:34:04;;;;;;;18.63;5.07;;;;;;;;;;4935539;28;20043;-80